sensor_id;sensor_type;location;lat;lon;timestamp;P1;durP1;ratioP1;P2;durP2;ratioP2
26530;SDS011;14201;43.188;24.160;2023-12-07T00:01:09;85.35;;;40.60;;
26530;SDS011;14201;43.188;24.160;2023-12-07T00:03:34;95.68;;;42.97;;
26530;SDS011;14201;43.188;24.160;2023-12-07T00:06:00;93.72;;;43.13;;
26530;SDS011;14201;43.188;24.160;2023-12-07T00:08:26;88.43;;;43.33;;
26530;SDS011;14201;43.188;24.160;2023-12-07T00:10:52;94.97;;;43.53;;
26530;SDS011;14201;43.188;24.160;2023-12-07T00:13:18;96.63;;;41.17;;
26530;SDS011;14201;43.188;24.160;2023-12-07T00:15:44;94.60;;;41.35;;
26530;SDS011;14201;43.188;24.160;2023-12-07T00:18:09;94.70;;;40.25;;
26530;SDS011;14201;43.188;24.160;2023-12-07T00:20:35;91.03;;;39.95;;
26530;SDS011;14201;43.188;24.160;2023-12-07T00:23:01;88.95;;;37.47;;
26530;SDS011;14201;43.188;24.160;2023-12-07T00:25:26;90.65;;;39.17;;
26530;SDS011;14201;43.188;24.160;2023-12-07T00:27:52;90.57;;;39.00;;
26530;SDS011;14201;43.188;24.160;2023-12-07T00:30:17;94.22;;;39.45;;
26530;SDS011;14201;43.188;24.160;2023-12-07T00:32:43;89.78;;;38.70;;
26530;SDS011;14201;43.188;24.160;2023-12-07T00:35:11;86.63;;;38.85;;
26530;SDS011;14201;43.188;24.160;2023-12-07T00:37:37;96.80;;;40.63;;
26530;SDS011;14201;43.188;24.160;2023-12-07T00:40:03;93.00;;;40.63;;
26530;SDS011;14201;43.188;24.160;2023-12-07T00:42:30;95.03;;;39.50;;
26530;SDS011;14201;43.188;24.160;2023-12-07T00:44:56;95.13;;;40.28;;
26530;SDS011;14201;43.188;24.160;2023-12-07T00:47:22;92.35;;;39.72;;
26530;SDS011;14201;43.188;24.160;2023-12-07T00:49:48;93.80;;;40.40;;
26530;SDS011;14201;43.188;24.160;2023-12-07T00:52:13;92.15;;;38.42;;
26530;SDS011;14201;43.188;24.160;2023-12-07T00:54:39;91.82;;;39.58;;
26530;SDS011;14201;43.188;24.160;2023-12-07T00:57:06;98.88;;;40.80;;
26530;SDS011;14201;43.188;24.160;2023-12-07T00:59:32;93.28;;;40.80;;
26530;SDS011;14201;43.188;24.160;2023-12-07T01:02:02;98.70;;;39.75;;
26530;SDS011;14201;43.188;24.160;2023-12-07T01:04:31;88.00;;;38.83;;
26530;SDS011;14201;43.188;24.160;2023-12-07T01:06:57;86.93;;;38.03;;
26530;SDS011;14201;43.188;24.160;2023-12-07T01:09:23;89.25;;;38.78;;
26530;SDS011;14201;43.188;24.160;2023-12-07T01:11:49;81.47;;;37.47;;
26530;SDS011;14201;43.188;24.160;2023-12-07T01:14:15;92.13;;;38.80;;
26530;SDS011;14201;43.188;24.160;2023-12-07T01:16:42;86.88;;;38.28;;
26530;SDS011;14201;43.188;24.160;2023-12-07T01:19:08;87.90;;;37.38;;
26530;SDS011;14201;43.188;24.160;2023-12-07T01:21:34;84.38;;;38.53;;
26530;SDS011;14201;43.188;24.160;2023-12-07T01:23:59;89.50;;;39.15;;
26530;SDS011;14201;43.188;24.160;2023-12-07T01:26:25;91.53;;;39.85;;
26530;SDS011;14201;43.188;24.160;2023-12-07T01:28:51;91.47;;;39.55;;
26530;SDS011;14201;43.188;24.160;2023-12-07T01:31:16;87.97;;;40.15;;
26530;SDS011;14201;43.188;24.160;2023-12-07T01:33:43;90.13;;;39.88;;
26530;SDS011;14201;43.188;24.160;2023-12-07T01:36:09;85.40;;;39.38;;
26530;SDS011;14201;43.188;24.160;2023-12-07T01:38:35;79.72;;;35.97;;
26530;SDS011;14201;43.188;24.160;2023-12-07T01:41:01;81.43;;;35.72;;
26530;SDS011;14201;43.188;24.160;2023-12-07T01:43:27;84.03;;;36.05;;
26530;SDS011;14201;43.188;24.160;2023-12-07T01:45:53;77.15;;;36.28;;
26530;SDS011;14201;43.188;24.160;2023-12-07T01:48:21;80.85;;;35.80;;
26530;SDS011;14201;43.188;24.160;2023-12-07T01:50:48;80.22;;;34.25;;
26530;SDS011;14201;43.188;24.160;2023-12-07T01:53:15;75.68;;;33.83;;
26530;SDS011;14201;43.188;24.160;2023-12-07T01:55:41;80.22;;;33.78;;
26530;SDS011;14201;43.188;24.160;2023-12-07T01:58:07;70.40;;;33.28;;
26530;SDS011;14201;43.188;24.160;2023-12-07T02:00:33;68.38;;;31.90;;
26530;SDS011;14201;43.188;24.160;2023-12-07T02:03:02;73.35;;;33.67;;
26530;SDS011;14201;43.188;24.160;2023-12-07T02:05:30;67.05;;;32.25;;
26530;SDS011;14201;43.188;24.160;2023-12-07T02:07:57;70.50;;;32.90;;
26530;SDS011;14201;43.188;24.160;2023-12-07T02:10:23;65.43;;;32.17;;
26530;SDS011;14201;43.188;24.160;2023-12-07T02:12:49;70.85;;;32.85;;
26530;SDS011;14201;43.188;24.160;2023-12-07T02:15:16;73.57;;;32.75;;
26530;SDS011;14201;43.188;24.160;2023-12-07T02:20:26;80.45;;;31.83;;
26530;SDS011;14201;43.188;24.160;2023-12-07T02:23:03;74.00;;;32.13;;
26530;SDS011;14201;43.188;24.160;2023-12-07T02:25:35;81.28;;;31.88;;
26530;SDS011;14201;43.188;24.160;2023-12-07T02:28:06;85.13;;;33.28;;
26530;SDS011;14201;43.188;24.160;2023-12-07T02:30:32;79.15;;;32.33;;
26530;SDS011;14201;43.188;24.160;2023-12-07T02:32:58;76.63;;;33.22;;
26530;SDS011;14201;43.188;24.160;2023-12-07T02:35:24;77.82;;;31.33;;
26530;SDS011;14201;43.188;24.160;2023-12-07T02:37:50;74.43;;;31.80;;
26530;SDS011;14201;43.188;24.160;2023-12-07T02:40:17;72.45;;;31.48;;
26530;SDS011;14201;43.188;24.160;2023-12-07T02:42:47;75.93;;;31.73;;
26530;SDS011;14201;43.188;24.160;2023-12-07T02:45:13;71.90;;;28.92;;
26530;SDS011;14201;43.188;24.160;2023-12-07T02:47:40;72.28;;;29.80;;
26530;SDS011;14201;43.188;24.160;2023-12-07T02:50:08;79.85;;;30.98;;
26530;SDS011;14201;43.188;24.160;2023-12-07T02:52:37;77.90;;;30.60;;
26530;SDS011;14201;43.188;24.160;2023-12-07T02:55:03;81.68;;;30.38;;
26530;SDS011;14201;43.188;24.160;2023-12-07T02:57:30;77.40;;;30.45;;
26530;SDS011;14201;43.188;24.160;2023-12-07T02:59:58;78.13;;;29.98;;
26530;SDS011;14201;43.188;24.160;2023-12-07T03:02:25;83.07;;;31.38;;
26530;SDS011;14201;43.188;24.160;2023-12-07T03:04:50;76.68;;;29.55;;
26530;SDS011;14201;43.188;24.160;2023-12-07T03:07:16;75.47;;;29.50;;
26530;SDS011;14201;43.188;24.160;2023-12-07T03:09:42;82.43;;;29.90;;
26530;SDS011;14201;43.188;24.160;2023-12-07T03:12:08;80.72;;;29.98;;
26530;SDS011;14201;43.188;24.160;2023-12-07T03:14:33;86.70;;;31.90;;
26530;SDS011;14201;43.188;24.160;2023-12-07T03:16:59;76.60;;;30.10;;
26530;SDS011;14201;43.188;24.160;2023-12-07T03:19:25;73.45;;;29.50;;
26530;SDS011;14201;43.188;24.160;2023-12-07T03:21:50;79.53;;;29.42;;
26530;SDS011;14201;43.188;24.160;2023-12-07T03:24:16;81.72;;;28.58;;
26530;SDS011;14201;43.188;24.160;2023-12-07T03:26:42;83.75;;;28.63;;
26530;SDS011;14201;43.188;24.160;2023-12-07T03:29:07;85.47;;;29.35;;
26530;SDS011;14201;43.188;24.160;2023-12-07T03:31:33;80.55;;;29.27;;
26530;SDS011;14201;43.188;24.160;2023-12-07T03:33:59;90.63;;;29.20;;
26530;SDS011;14201;43.188;24.160;2023-12-07T03:36:26;94.45;;;29.55;;
26530;SDS011;14201;43.188;24.160;2023-12-07T03:38:52;96.75;;;29.63;;
26530;SDS011;14201;43.188;24.160;2023-12-07T03:41:18;87.40;;;29.70;;
26530;SDS011;14201;43.188;24.160;2023-12-07T03:43:44;133.98;;;30.25;;
26530;SDS011;14201;43.188;24.160;2023-12-07T03:46:10;97.40;;;29.48;;
26530;SDS011;14201;43.188;24.160;2023-12-07T03:48:35;124.43;;;30.67;;
26530;SDS011;14201;43.188;24.160;2023-12-07T03:51:01;110.15;;;30.63;;
26530;SDS011;14201;43.188;24.160;2023-12-07T03:53:27;106.13;;;31.00;;
26530;SDS011;14201;43.188;24.160;2023-12-07T03:55:53;123.68;;;31.02;;
26530;SDS011;14201;43.188;24.160;2023-12-07T03:58:19;170.27;;;34.35;;
26530;SDS011;14201;43.188;24.160;2023-12-07T04:00:44;99.53;;;32.42;;
26530;SDS011;14201;43.188;24.160;2023-12-07T04:03:11;91.03;;;29.88;;
26530;SDS011;14201;43.188;24.160;2023-12-07T04:05:36;92.72;;;29.80;;
26530;SDS011;14201;43.188;24.160;2023-12-07T04:08:03;213.60;;;33.53;;
26530;SDS011;14201;43.188;24.160;2023-12-07T04:10:30;145.57;;;31.23;;
26530;SDS011;14201;43.188;24.160;2023-12-07T04:12:56;172.75;;;34.65;;
26530;SDS011;14201;43.188;24.160;2023-12-07T04:15:22;131.15;;;31.42;;
26530;SDS011;14201;43.188;24.160;2023-12-07T04:17:48;165.20;;;31.73;;
26530;SDS011;14201;43.188;24.160;2023-12-07T04:20:14;179.25;;;31.35;;
26530;SDS011;14201;43.188;24.160;2023-12-07T04:22:40;414.33;;;37.45;;
26530;SDS011;14201;43.188;24.160;2023-12-07T04:25:06;556.65;;;41.58;;
26530;SDS011;14201;43.188;24.160;2023-12-07T04:27:35;662.78;;;42.70;;
26530;SDS011;14201;43.188;24.160;2023-12-07T04:30:01;285.98;;;32.92;;
26530;SDS011;14201;43.188;24.160;2023-12-07T04:32:28;414.23;;;37.67;;
26530;SDS011;14201;43.188;24.160;2023-12-07T04:34:54;472.52;;;40.35;;
26530;SDS011;14201;43.188;24.160;2023-12-07T04:37:20;571.38;;;43.10;;
26530;SDS011;14201;43.188;24.160;2023-12-07T04:39:46;511.42;;;40.03;;
26530;SDS011;14201;43.188;24.160;2023-12-07T04:42:11;394.00;;;37.08;;
26530;SDS011;14201;43.188;24.160;2023-12-07T04:44:37;661.03;;;45.80;;
26530;SDS011;14201;43.188;24.160;2023-12-07T04:47:03;635.85;;;46.38;;
26530;SDS011;14201;43.188;24.160;2023-12-07T04:49:29;503.52;;;42.42;;
26530;SDS011;14201;43.188;24.160;2023-12-07T04:51:54;527.55;;;43.83;;
26530;SDS011;14201;43.188;24.160;2023-12-07T04:54:20;526.72;;;44.80;;
26530;SDS011;14201;43.188;24.160;2023-12-07T04:56:46;444.50;;;42.25;;
26530;SDS011;14201;43.188;24.160;2023-12-07T04:59:11;640.67;;;47.97;;
26530;SDS011;14201;43.188;24.160;2023-12-07T05:01:37;600.67;;;47.20;;
26530;SDS011;14201;43.188;24.160;2023-12-07T05:04:06;484.27;;;42.53;;
26530;SDS011;14201;43.188;24.160;2023-12-07T05:06:31;555.72;;;45.40;;
26530;SDS011;14201;43.188;24.160;2023-12-07T05:08:58;713.85;;;50.65;;
26530;SDS011;14201;43.188;24.160;2023-12-07T05:11:23;516.38;;;43.72;;
26530;SDS011;14201;43.188;24.160;2023-12-07T05:13:49;491.25;;;40.90;;
26530;SDS011;14201;43.188;24.160;2023-12-07T05:16:15;420.60;;;40.20;;
26530;SDS011;14201;43.188;24.160;2023-12-07T05:18:41;540.55;;;43.15;;
26530;SDS011;14201;43.188;24.160;2023-12-07T05:21:06;694.03;;;46.08;;
26530;SDS011;14201;43.188;24.160;2023-12-07T05:23:32;494.60;;;40.03;;
26530;SDS011;14201;43.188;24.160;2023-12-07T05:25:58;247.35;;;33.05;;
26530;SDS011;14201;43.188;24.160;2023-12-07T05:28:25;443.63;;;38.72;;
26530;SDS011;14201;43.188;24.160;2023-12-07T05:30:51;531.15;;;42.28;;
26530;SDS011;14201;43.188;24.160;2023-12-07T05:33:17;336.85;;;37.85;;
26530;SDS011;14201;43.188;24.160;2023-12-07T05:35:44;179.68;;;34.25;;
26530;SDS011;14201;43.188;24.160;2023-12-07T05:38:10;190.65;;;33.50;;
26530;SDS011;14201;43.188;24.160;2023-12-07T05:40:39;296.02;;;35.22;;
26530;SDS011;14201;43.188;24.160;2023-12-07T05:43:05;341.80;;;36.92;;
26530;SDS011;14201;43.188;24.160;2023-12-07T05:45:30;451.65;;;41.30;;
26530;SDS011;14201;43.188;24.160;2023-12-07T05:47:56;427.33;;;40.33;;
26530;SDS011;14201;43.188;24.160;2023-12-07T05:50:22;362.25;;;40.25;;
26530;SDS011;14201;43.188;24.160;2023-12-07T05:52:47;343.80;;;39.22;;
26530;SDS011;14201;43.188;24.160;2023-12-07T05:55:13;158.70;;;35.67;;
26530;SDS011;14201;43.188;24.160;2023-12-07T05:57:39;137.80;;;35.72;;
26530;SDS011;14201;43.188;24.160;2023-12-07T06:00:06;169.25;;;37.95;;
26530;SDS011;14201;43.188;24.160;2023-12-07T06:02:35;173.25;;;37.63;;
26530;SDS011;14201;43.188;24.160;2023-12-07T06:05:02;145.80;;;33.53;;
26530;SDS011;14201;43.188;24.160;2023-12-07T06:07:30;159.30;;;36.47;;
26530;SDS011;14201;43.188;24.160;2023-12-07T06:09:56;153.90;;;36.63;;
26530;SDS011;14201;43.188;24.160;2023-12-07T06:12:22;164.15;;;39.17;;
26530;SDS011;14201;43.188;24.160;2023-12-07T06:14:48;224.85;;;39.67;;
26530;SDS011;14201;43.188;24.160;2023-12-07T06:17:14;127.15;;;35.28;;
26530;SDS011;14201;43.188;24.160;2023-12-07T06:19:40;150.73;;;37.70;;
26530;SDS011;14201;43.188;24.160;2023-12-07T06:22:07;164.35;;;37.30;;
26530;SDS011;14201;43.188;24.160;2023-12-07T06:24:33;171.18;;;38.90;;
26530;SDS011;14201;43.188;24.160;2023-12-07T06:26:59;148.65;;;38.45;;
26530;SDS011;14201;43.188;24.160;2023-12-07T06:29:26;159.70;;;38.72;;
26530;SDS011;14201;43.188;24.160;2023-12-07T06:31:52;181.85;;;40.33;;
26530;SDS011;14201;43.188;24.160;2023-12-07T06:34:18;220.68;;;41.53;;
26530;SDS011;14201;43.188;24.160;2023-12-07T06:36:44;268.45;;;43.65;;
26530;SDS011;14201;43.188;24.160;2023-12-07T06:39:10;224.88;;;42.75;;
26530;SDS011;14201;43.188;24.160;2023-12-07T06:41:36;281.23;;;43.25;;
26530;SDS011;14201;43.188;24.160;2023-12-07T06:44:01;170.35;;;39.95;;
26530;SDS011;14201;43.188;24.160;2023-12-07T06:46:27;200.02;;;39.25;;
26530;SDS011;14201;43.188;24.160;2023-12-07T06:48:54;177.18;;;40.78;;
26530;SDS011;14201;43.188;24.160;2023-12-07T06:51:19;153.38;;;39.40;;
26530;SDS011;14201;43.188;24.160;2023-12-07T06:53:45;248.80;;;44.03;;
26530;SDS011;14201;43.188;24.160;2023-12-07T06:56:11;167.20;;;40.72;;
26530;SDS011;14201;43.188;24.160;2023-12-07T06:58:36;156.93;;;38.47;;
26530;SDS011;14201;43.188;24.160;2023-12-07T07:01:02;140.93;;;37.05;;
26530;SDS011;14201;43.188;24.160;2023-12-07T07:03:28;165.50;;;38.67;;
26530;SDS011;14201;43.188;24.160;2023-12-07T07:05:56;101.82;;;31.40;;
26530;SDS011;14201;43.188;24.160;2023-12-07T07:08:24;98.93;;;30.20;;
26530;SDS011;14201;43.188;24.160;2023-12-07T07:10:50;85.43;;;29.27;;
26530;SDS011;14201;43.188;24.160;2023-12-07T07:13:15;78.20;;;27.48;;
26530;SDS011;14201;43.188;24.160;2023-12-07T07:15:42;78.40;;;26.90;;
26530;SDS011;14201;43.188;24.160;2023-12-07T07:18:11;79.53;;;25.80;;
26530;SDS011;14201;43.188;24.160;2023-12-07T07:20:37;77.70;;;27.38;;
26530;SDS011;14201;43.188;24.160;2023-12-07T07:23:03;82.15;;;26.85;;
26530;SDS011;14201;43.188;24.160;2023-12-07T07:25:28;84.80;;;28.85;;
26530;SDS011;14201;43.188;24.160;2023-12-07T07:27:54;82.32;;;29.73;;
26530;SDS011;14201;43.188;24.160;2023-12-07T07:30:20;110.50;;;33.38;;
26530;SDS011;14201;43.188;24.160;2023-12-07T07:32:46;98.95;;;33.63;;
26530;SDS011;14201;43.188;24.160;2023-12-07T07:35:12;122.22;;;38.28;;
26530;SDS011;14201;43.188;24.160;2023-12-07T07:37:39;107.63;;;37.22;;
26530;SDS011;14201;43.188;24.160;2023-12-07T07:40:04;122.97;;;39.10;;
26530;SDS011;14201;43.188;24.160;2023-12-07T07:42:34;104.88;;;36.55;;
26530;SDS011;14201;43.188;24.160;2023-12-07T07:45:00;88.43;;;35.53;;
26530;SDS011;14201;43.188;24.160;2023-12-07T07:47:26;104.13;;;41.03;;
26530;SDS011;14201;43.188;24.160;2023-12-07T07:49:52;113.20;;;40.45;;
26530;SDS011;14201;43.188;24.160;2023-12-07T07:52:18;111.03;;;39.30;;
26530;SDS011;14201;43.188;24.160;2023-12-07T07:54:44;96.50;;;37.50;;
26530;SDS011;14201;43.188;24.160;2023-12-07T07:57:11;89.32;;;33.83;;
26530;SDS011;14201;43.188;24.160;2023-12-07T07:59:36;93.10;;;35.97;;
26530;SDS011;14201;43.188;24.160;2023-12-07T08:02:02;87.03;;;34.05;;
26530;SDS011;14201;43.188;24.160;2023-12-07T08:04:28;84.00;;;32.15;;
26530;SDS011;14201;43.188;24.160;2023-12-07T08:06:54;127.72;;;61.47;;
26530;SDS011;14201;43.188;24.160;2023-12-07T08:09:19;92.30;;;39.85;;
26530;SDS011;14201;43.188;24.160;2023-12-07T08:11:45;87.28;;;35.13;;
26530;SDS011;14201;43.188;24.160;2023-12-07T08:14:11;100.78;;;41.60;;
26530;SDS011;14201;43.188;24.160;2023-12-07T08:16:36;168.02;;;85.65;;
26530;SDS011;14201;43.188;24.160;2023-12-07T08:19:02;140.93;;;67.53;;
26530;SDS011;14201;43.188;24.160;2023-12-07T08:21:28;92.70;;;49.80;;
26530;SDS011;14201;43.188;24.160;2023-12-07T08:23:55;57.22;;;27.33;;
26530;SDS011;14201;43.188;24.160;2023-12-07T08:26:21;57.33;;;24.48;;
26530;SDS011;14201;43.188;24.160;2023-12-07T08:28:47;61.38;;;24.40;;
26530;SDS011;14201;43.188;24.160;2023-12-07T08:31:13;48.25;;;22.00;;
26530;SDS011;14201;43.188;24.160;2023-12-07T08:33:38;46.97;;;21.40;;
26530;SDS011;14201;43.188;24.160;2023-12-07T08:36:05;45.58;;;21.17;;
26530;SDS011;14201;43.188;24.160;2023-12-07T08:38:31;52.55;;;22.40;;
26530;SDS011;14201;43.188;24.160;2023-12-07T08:40:57;41.72;;;19.25;;
26530;SDS011;14201;43.188;24.160;2023-12-07T08:43:23;38.80;;;18.30;;
26530;SDS011;14201;43.188;24.160;2023-12-07T08:45:50;42.83;;;18.85;;
26530;SDS011;14201;43.188;24.160;2023-12-07T08:48:16;42.80;;;19.27;;
26530;SDS011;14201;43.188;24.160;2023-12-07T08:50:41;36.15;;;16.50;;
26530;SDS011;14201;43.188;24.160;2023-12-07T08:53:07;32.63;;;17.63;;
26530;SDS011;14201;43.188;24.160;2023-12-07T08:55:33;34.72;;;18.65;;
26530;SDS011;14201;43.188;24.160;2023-12-07T08:57:59;40.85;;;19.40;;
26530;SDS011;14201;43.188;24.160;2023-12-07T09:00:25;43.97;;;20.75;;
26530;SDS011;14201;43.188;24.160;2023-12-07T09:02:51;42.67;;;21.13;;
26530;SDS011;14201;43.188;24.160;2023-12-07T09:05:17;44.20;;;21.92;;
26530;SDS011;14201;43.188;24.160;2023-12-07T09:07:43;44.70;;;22.35;;
26530;SDS011;14201;43.188;24.160;2023-12-07T09:10:09;47.00;;;23.85;;
26530;SDS011;14201;43.188;24.160;2023-12-07T09:12:36;46.90;;;23.10;;
26530;SDS011;14201;43.188;24.160;2023-12-07T09:15:02;47.80;;;23.48;;
26530;SDS011;14201;43.188;24.160;2023-12-07T09:17:28;43.05;;;21.88;;
26530;SDS011;14201;43.188;24.160;2023-12-07T09:19:54;43.83;;;22.27;;
26530;SDS011;14201;43.188;24.160;2023-12-07T09:22:20;42.03;;;21.00;;
26530;SDS011;14201;43.188;24.160;2023-12-07T09:24:47;39.45;;;20.23;;
26530;SDS011;14201;43.188;24.160;2023-12-07T09:27:13;34.15;;;18.88;;
26530;SDS011;14201;43.188;24.160;2023-12-07T09:29:39;32.67;;;19.15;;
26530;SDS011;14201;43.188;24.160;2023-12-07T09:32:05;30.88;;;17.67;;
26530;SDS011;14201;43.188;24.160;2023-12-07T09:34:32;28.52;;;16.98;;
26530;SDS011;14201;43.188;24.160;2023-12-07T09:37:09;20.80;;;12.57;;
26530;SDS011;14201;43.188;24.160;2023-12-07T09:39:36;17.50;;;10.90;;
26530;SDS011;14201;43.188;24.160;2023-12-07T09:42:02;23.17;;;12.73;;
26530;SDS011;14201;43.188;24.160;2023-12-07T09:44:28;36.60;;;19.27;;
26530;SDS011;14201;43.188;24.160;2023-12-07T09:46:54;31.95;;;18.08;;
26530;SDS011;14201;43.188;24.160;2023-12-07T09:49:20;29.90;;;15.32;;
26530;SDS011;14201;43.188;24.160;2023-12-07T09:51:46;30.15;;;16.23;;
26530;SDS011;14201;43.188;24.160;2023-12-07T09:54:13;28.77;;;16.17;;
26530;SDS011;14201;43.188;24.160;2023-12-07T09:56:39;21.25;;;12.85;;
26530;SDS011;14201;43.188;24.160;2023-12-07T09:59:05;125.57;;;102.78;;
26530;SDS011;14201;43.188;24.160;2023-12-07T10:01:32;14.23;;;10.60;;
26530;SDS011;14201;43.188;24.160;2023-12-07T10:06:45;14.13;;;8.18;;
26530;SDS011;14201;43.188;24.160;2023-12-07T10:09:15;14.20;;;8.75;;
26530;SDS011;14201;43.188;24.160;2023-12-07T10:11:41;13.65;;;8.40;;
26530;SDS011;14201;43.188;24.160;2023-12-07T10:14:09;12.13;;;7.60;;
26530;SDS011;14201;43.188;24.160;2023-12-07T10:16:35;15.32;;;8.70;;
26530;SDS011;14201;43.188;24.160;2023-12-07T10:19:23;12.93;;;8.55;;
26530;SDS011;14201;43.188;24.160;2023-12-07T10:21:48;12.82;;;8.73;;
26530;SDS011;14201;43.188;24.160;2023-12-07T10:24:17;11.48;;;8.10;;
26530;SDS011;14201;43.188;24.160;2023-12-07T10:26:45;12.40;;;7.70;;
26530;SDS011;14201;43.188;24.160;2023-12-07T10:29:11;12.30;;;7.95;;
26530;SDS011;14201;43.188;24.160;2023-12-07T10:31:37;11.70;;;7.18;;
26530;SDS011;14201;43.188;24.160;2023-12-07T10:34:04;11.27;;;6.93;;
26530;SDS011;14201;43.188;24.160;2023-12-07T10:36:30;7.50;;;5.65;;
26530;SDS011;14201;43.188;24.160;2023-12-07T10:38:58;7.45;;;5.22;;
26530;SDS011;14201;43.188;24.160;2023-12-07T10:41:24;7.15;;;5.40;;
26530;SDS011;14201;43.188;24.160;2023-12-07T10:43:54;9.80;;;6.43;;
26530;SDS011;14201;43.188;24.160;2023-12-07T10:46:25;10.15;;;7.05;;
26530;SDS011;14201;43.188;24.160;2023-12-07T10:48:54;11.57;;;8.93;;
26530;SDS011;14201;43.188;24.160;2023-12-07T10:51:29;12.23;;;8.27;;
26530;SDS011;14201;43.188;24.160;2023-12-07T10:54:01;12.45;;;8.45;;
26530;SDS011;14201;43.188;24.160;2023-12-07T10:56:29;17.25;;;11.18;;
26530;SDS011;14201;43.188;24.160;2023-12-07T10:59:07;19.20;;;12.88;;
26530;SDS011;14201;43.188;24.160;2023-12-07T11:01:39;20.73;;;12.57;;
26530;SDS011;14201;43.188;24.160;2023-12-07T11:04:05;21.42;;;13.25;;
26530;SDS011;14201;43.188;24.160;2023-12-07T11:06:32;20.33;;;13.02;;
26530;SDS011;14201;43.188;24.160;2023-12-07T11:09:00;21.77;;;13.85;;
26530;SDS011;14201;43.188;24.160;2023-12-07T11:14:09;19.42;;;12.57;;
26530;SDS011;14201;43.188;24.160;2023-12-07T11:16:43;20.30;;;11.00;;
26530;SDS011;14201;43.188;24.160;2023-12-07T11:21:55;21.33;;;13.57;;
26530;SDS011;14201;43.188;24.160;2023-12-07T11:24:23;21.88;;;12.65;;
26530;SDS011;14201;43.188;24.160;2023-12-07T11:26:53;24.55;;;11.95;;
26530;SDS011;14201;43.188;24.160;2023-12-07T11:32:04;17.45;;;10.95;;
26530;SDS011;14201;43.188;24.160;2023-12-07T11:34:38;23.70;;;13.43;;
26530;SDS011;14201;43.188;24.160;2023-12-07T11:37:08;23.65;;;12.95;;
26530;SDS011;14201;43.188;24.160;2023-12-07T11:42:11;22.30;;;13.00;;
26530;SDS011;14201;43.188;24.160;2023-12-07T11:44:40;26.55;;;15.23;;
26530;SDS011;14201;43.188;24.160;2023-12-07T11:47:07;24.95;;;13.77;;
26530;SDS011;14201;43.188;24.160;2023-12-07T11:49:34;23.77;;;14.48;;
26530;SDS011;14201;43.188;24.160;2023-12-07T11:52:01;23.50;;;13.07;;
26530;SDS011;14201;43.188;24.160;2023-12-07T11:54:47;60.70;;;35.00;;
26530;SDS011;14201;43.188;24.160;2023-12-07T11:57:14;25.95;;;16.50;;
26530;SDS011;14201;43.188;24.160;2023-12-07T11:59:41;26.38;;;15.65;;
26530;SDS011;14201;43.188;24.160;2023-12-07T12:02:12;31.55;;;16.80;;
26530;SDS011;14201;43.188;24.160;2023-12-07T12:04:38;27.42;;;15.77;;
26530;SDS011;14201;43.188;24.160;2023-12-07T12:07:05;34.88;;;18.48;;
26530;SDS011;14201;43.188;24.160;2023-12-07T12:09:31;44.25;;;24.75;;
26530;SDS011;14201;43.188;24.160;2023-12-07T12:11:59;138.95;;;78.65;;
26530;SDS011;14201;43.188;24.160;2023-12-07T12:14:26;35.08;;;19.73;;
26530;SDS011;14201;43.188;24.160;2023-12-07T12:16:53;33.83;;;19.17;;
26530;SDS011;14201;43.188;24.160;2023-12-07T12:19:19;39.90;;;19.35;;
26530;SDS011;14201;43.188;24.160;2023-12-07T12:21:45;31.98;;;18.10;;
26530;SDS011;14201;43.188;24.160;2023-12-07T12:24:12;35.78;;;18.42;;
26530;SDS011;14201;43.188;24.160;2023-12-07T12:26:39;31.55;;;19.50;;
26530;SDS011;14201;43.188;24.160;2023-12-07T12:29:07;32.67;;;18.50;;
26530;SDS011;14201;43.188;24.160;2023-12-07T12:31:34;26.23;;;15.07;;
26530;SDS011;14201;43.188;24.160;2023-12-07T12:34:03;24.95;;;16.25;;
26530;SDS011;14201;43.188;24.160;2023-12-07T12:36:32;26.45;;;15.50;;
26530;SDS011;14201;43.188;24.160;2023-12-07T12:38:58;20.20;;;11.93;;
26530;SDS011;14201;43.188;24.160;2023-12-07T12:41:25;18.58;;;11.77;;
26530;SDS011;14201;43.188;24.160;2023-12-07T12:43:51;22.33;;;12.57;;
26530;SDS011;14201;43.188;24.160;2023-12-07T12:46:17;16.92;;;10.05;;
26530;SDS011;14201;43.188;24.160;2023-12-07T12:48:52;15.75;;;9.98;;
26530;SDS011;14201;43.188;24.160;2023-12-07T12:51:23;16.17;;;10.85;;
26530;SDS011;14201;43.188;24.160;2023-12-07T12:53:58;14.60;;;10.07;;
26530;SDS011;14201;43.188;24.160;2023-12-07T12:56:24;18.25;;;12.15;;
26530;SDS011;14201;43.188;24.160;2023-12-07T12:58:52;19.77;;;11.15;;
26530;SDS011;14201;43.188;24.160;2023-12-07T13:01:21;13.65;;;9.30;;
26530;SDS011;14201;43.188;24.160;2023-12-07T13:03:47;12.27;;;8.52;;
26530;SDS011;14201;43.188;24.160;2023-12-07T13:06:14;14.15;;;8.68;;
26530;SDS011;14201;43.188;24.160;2023-12-07T13:08:41;13.23;;;9.32;;
26530;SDS011;14201;43.188;24.160;2023-12-07T13:11:08;12.98;;;8.18;;
26530;SDS011;14201;43.188;24.160;2023-12-07T13:13:34;10.90;;;7.22;;
26530;SDS011;14201;43.188;24.160;2023-12-07T13:16:00;9.85;;;7.57;;
26530;SDS011;14201;43.188;24.160;2023-12-07T13:18:26;14.45;;;8.55;;
26530;SDS011;14201;43.188;24.160;2023-12-07T13:20:52;14.00;;;8.57;;
26530;SDS011;14201;43.188;24.160;2023-12-07T13:23:17;11.02;;;8.05;;
26530;SDS011;14201;43.188;24.160;2023-12-07T13:25:43;12.10;;;7.85;;
26530;SDS011;14201;43.188;24.160;2023-12-07T13:28:09;8.85;;;5.75;;
26530;SDS011;14201;43.188;24.160;2023-12-07T13:30:34;9.27;;;6.28;;
26530;SDS011;14201;43.188;24.160;2023-12-07T13:33:01;5.05;;;4.00;;
26530;SDS011;14201;43.188;24.160;2023-12-07T13:35:29;6.80;;;4.20;;
26530;SDS011;14201;43.188;24.160;2023-12-07T13:37:55;3.85;;;2.70;;
26530;SDS011;14201;43.188;24.160;2023-12-07T13:40:20;2.45;;;1.92;;
26530;SDS011;14201;43.188;24.160;2023-12-07T13:42:46;2.72;;;1.50;;
26530;SDS011;14201;43.188;24.160;2023-12-07T13:45:12;2.15;;;1.65;;
26530;SDS011;14201;43.188;24.160;2023-12-07T13:47:38;3.75;;;2.70;;
26530;SDS011;14201;43.188;24.160;2023-12-07T13:50:04;5.00;;;3.80;;
26530;SDS011;14201;43.188;24.160;2023-12-07T13:52:31;4.93;;;3.53;;
26530;SDS011;14201;43.188;24.160;2023-12-07T13:54:57;5.75;;;3.50;;
26530;SDS011;14201;43.188;24.160;2023-12-07T13:57:23;3.17;;;2.60;;
26530;SDS011;14201;43.188;24.160;2023-12-07T13:59:52;2.78;;;2.22;;
26530;SDS011;14201;43.188;24.160;2023-12-07T14:02:21;2.20;;;1.70;;
26530;SDS011;14201;43.188;24.160;2023-12-07T14:04:47;1.30;;;1.20;;
26530;SDS011;14201;43.188;24.160;2023-12-07T14:07:15;1.20;;;1.10;;
26530;SDS011;14201;43.188;24.160;2023-12-07T14:09:43;1.70;;;1.20;;
26530;SDS011;14201;43.188;24.160;2023-12-07T14:12:11;2.30;;;1.27;;
26530;SDS011;14201;43.188;24.160;2023-12-07T14:14:39;1.20;;;1.10;;
26530;SDS011;14201;43.188;24.160;2023-12-07T14:17:06;1.10;;;1.00;;
26530;SDS011;14201;43.188;24.160;2023-12-07T14:19:32;2.55;;;0.90;;
26530;SDS011;14201;43.188;24.160;2023-12-07T14:21:58;1.65;;;0.90;;